Baltic Pride — ELWV4 — position and weather

sailwx.info

Track history (hours):
 
Tides and Currents Weather Stations Pressure Air Temp Water Temp Dewpoint Dewpoint Depression Visibility Wind Speed Wind Dir Waves Ship Positions

Baltic Pride

Last reported at 2017-Nov-19 07:44 UTC. Time now 2017-Nov-20 15:20 UTC.
Position N 48°12' W 007°19'.

Length 150 m; draft 7.7 m.

Type: Cargo ship. MMSI: 636011106.

Date/timePositionNaut miles runAvg speedWind from/ knotsBaromVisibWave heightAir tempDewpointWater temp
2017-Nov-19 07:44N 48°12' W 007°19'517.4
2017-Nov-19 07:26N 48°16' W 007°13'1216.8
2017-Nov-19 06:41N 48°24' W 006°59'316.5
2017-Nov-19 06:29N 48°27' W 006°55'816.4
2017-Nov-19 05:59N 48°32' W 006°46'1115.9
2017-Nov-19 05:17N 48°40' W 006°34'515.6
2017-Nov-19 05:00N 48°43' W 006°29'1215.4
2017-Nov-19 04:15N 48°51' W 006°16'1015.1
2017-Nov-19 03:33N 48°58' W 006°04'315.0
2017-Nov-19 03:23N 48°59' W 006°01'914.9
2017-Nov-19 02:46N 49°04' W 005°49'515.0
2017-Nov-19 02:25N 49°06' W 005°42'1915.4
2017-Nov-19 01:12N 49°14' W 005°16'616.0
2017-Nov-19 00:49N 49°17' W 005°08'616.5
2017-Nov-19 00:25N 49°20' W 004°59'5017.1
2017-Nov-18 21:31N 49°42' W 003°50'016.1
2017-Nov-18 21:30N 49°42' W 003°50'916.0
2017-Nov-18 20:55N 49°46' W 003°37'615.4
2017-Nov-18 20:30N 49°49' W 003°28'714.9
2017-Nov-18 20:00N 49°52' W 003°18'714.4
2017-Nov-18 19:30N 49°55' W 003°08'714.1
2017-Nov-18 19:01N 49°58' W 002°58'714.0
2017-Nov-18 18:31N 50°00' W 002°47'2915.0
2017-Nov-18 16:33N 50°09' W 002°04'216.2
2017-Nov-18 16:27N 50°09' W 002°01'716.8
2017-Nov-18 16:00N 50°11' W 001°50'917.6
2017-Nov-18 15:31N 50°13' W 001°37'918.3
2017-Nov-18 15:00N 50°16' W 001°23'3918.4
2017-Nov-18 12:55N 50°26' W 000°25'717.1
2017-Nov-18 12:30N 50°28' W 000°14'816.7
2017-Nov-18 12:00N 50°31' W 000°02'816.4
2017-Nov-18 11:30N 50°33' E 000°11'815.9
2017-Nov-18 11:00N 50°35' E 000°23'815.3
2017-Nov-18 10:30N 50°38' E 000°34'815.1
2017-Nov-18 10:00N 50°42' E 000°44'815.2
2017-Nov-18 09:30N 50°47' E 000°53'815.3
2017-Nov-18 08:59N 50°52' E 001°03'816.2
2017-Nov-18 08:30N 50°57' E 001°13'917.8
2017-Nov-18 08:00N 51°02' E 001°24'1019.2
2017-Nov-18 07:30N 51°07' E 001°36'918.9
2017-Nov-18 07:00N 51°15' E 001°46'918.5
2017-Nov-18 06:31N 51°23' E 001°53'917.4
2017-Nov-18 06:00N 51°29' E 002°02'816.7
2017-Nov-18 05:30N 51°36' E 002°11'916.4
2017-Nov-18 04:56N 51°43' E 002°21'6814.6
2017-Nov-18 00:15N 52°30' E 003°42'415.5
2017-Nov-18 00:00N 52°31' E 003°48'815.8
2017-Nov-17 23:30N 52°31' E 004°00'815.9
2017-Nov-17 23:00N 52°31' E 004°13'714.6
2017-Nov-17 22:30N 52°29' E 004°25'510.2
2017-Nov-17 22:01N 52°28' E 004°33'2 4.3
2017-Nov-17 21:30N 52°28' E 004°37'1 1.9
2017-Nov-17 21:00N 52°28' E 004°38'1 2.4
2017-Nov-17 20:30N 52°28' E 004°40'0 0.6
2017-Nov-17 19:58N 52°28' E 004°40'0 0.0
2017-Nov-17 19:28N 52°28' E 004°40'0 0.0
2017-Nov-17 18:58N 52°28' E 004°40'0 0.0
2017-Nov-17 18:28N 52°28' E 004°40'0 0.0
2017-Nov-17 17:55N 52°28' E 004°40'0 0.0
2017-Nov-17 17:28N 52°28' E 004°40'0 0.0
2017-Nov-17 16:58N 52°28' E 004°40'0 0.0
2017-Nov-17 16:28N 52°28' E 004°40'0 0.0
2017-Nov-17 15:58N 52°28' E 004°40'0 0.0
2017-Nov-17 15:28N 52°28' E 004°40'0 0.0
2017-Nov-17 14:58N 52°28' E 004°40'0 0.0
2017-Nov-17 14:25N 52°28' E 004°40'0 0.0
2017-Nov-17 13:58N 52°28' E 004°40'0 0.0
2017-Nov-17 13:28N 52°28' E 004°40'0 0.0
2017-Nov-17 12:58N 52°28' E 004°40'0 0.0
2017-Nov-17 12:25N 52°28' E 004°40'0 0.0
2017-Nov-17 11:55N 52°28' E 004°40'0 0.0
2017-Nov-17 11:25N 52°28' E 004°40'0 0.0
2017-Nov-17 10:58N 52°28' E 004°40'0 0.0
2017-Nov-17 10:28N 52°28' E 004°40'0 0.0
2017-Nov-17 09:55N 52°28' E 004°40'0 0.0
2017-Nov-17 09:28N 52°28' E 004°40'0 0.0
2017-Nov-17 08:58N 52°28' E 004°40'0 0.0
2017-Nov-17 08:28N 52°28' E 004°40'0 0.0
2017-Nov-17 07:58N 52°28' E 004°40'0 0.0
2017-Nov-17 07:28N 52°28' E 004°40'0 0.0
2017-Nov-17 06:58N 52°28' E 004°40'0 0.0
2017-Nov-17 06:28N 52°28' E 004°40'0 0.0
2017-Nov-17 05:52N 52°28' E 004°40'0 0.0
2017-Nov-17 05:25N 52°28' E 004°40'0 0.0
2017-Nov-17 04:58N 52°28' E 004°40'0 0.0
2017-Nov-17 04:28N 52°28' E 004°40'0 0.0
2017-Nov-17 03:58N 52°28' E 004°40'0 0.0
2017-Nov-17 03:28N 52°28' E 004°40'0 0.0
2017-Nov-17 02:58N 52°28' E 004°40'0 0.0
2017-Nov-17 02:28N 52°28' E 004°40'0 0.0
2017-Nov-17 01:58N 52°28' E 004°40'0 0.0
2017-Nov-17 01:28N 52°28' E 004°40'0 0.0
2017-Nov-17 00:58N 52°28' E 004°40'0 0.0
2017-Nov-17 00:22N 52°28' E 004°40'0 0.0
2017-Nov-16 23:58N 52°28' E 004°40'0 0.0
2017-Nov-16 23:28N 52°28' E 004°40'0 0.0
2017-Nov-16 22:58N 52°28' E 004°40'0 0.0
2017-Nov-16 22:28N 52°28' E 004°40'0 0.0
2017-Nov-16 21:58N 52°28' E 004°40'0 0.0
2017-Nov-16 21:28N 52°28' E 004°40'0 0.0
2017-Nov-16 20:58N 52°28' E 004°40'0 0.0
2017-Nov-16 20:28N 52°28' E 004°40'0 0.0
2017-Nov-16 19:58N 52°28' E 004°40'0 0.0
2017-Nov-16 19:28N 52°28' E 004°40'0 0.0
2017-Nov-16 18:58N 52°28' E 004°40'0 0.0
2017-Nov-16 18:13N 52°28' E 004°40'0 0.0
2017-Nov-16 17:55N 52°28' E 004°40'0 0.0
2017-Nov-16 17:28N 52°28' E 004°40'0 0.0
2017-Nov-16 16:52N 52°28' E 004°40'0 0.0
2017-Nov-16 16:28N 52°28' E 004°40'0 0.0
2017-Nov-16 15:55N 52°28' E 004°40'0 0.0
2017-Nov-16 15:28N 52°28' E 004°40'0 0.0
2017-Nov-16 14:55N 52°28' E 004°40'0 0.0
2017-Nov-16 14:28N 52°28' E 004°40'0 0.0
2017-Nov-16 13:58N 52°28' E 004°40'0 0.0
2017-Nov-16 13:28N 52°28' E 004°40'0 0.0
2017-Nov-16 12:58N 52°28' E 004°40'0 0.0
2017-Nov-16 12:25N 52°28' E 004°40'0 0.0
2017-Nov-16 11:52N 52°28' E 004°40'0 0.0
2017-Nov-16 11:28N 52°28' E 004°40'0 0.0
2017-Nov-16 10:58N 52°28' E 004°40'0 0.0
2017-Nov-16 10:28N 52°28' E 004°40'0 0.0
2017-Nov-16 09:58N 52°28' E 004°40'0 0.0
2017-Nov-16 09:28N 52°28' E 004°40'0 0.0
2017-Nov-16 08:52N 52°28' E 004°40'0 0.0
2017-Nov-16 08:25N 52°28' E 004°40'0 0.0
2017-Nov-16 07:58N 52°28' E 004°40'0 0.0
2017-Nov-16 07:28N 52°28' E 004°40'0 0.0
2017-Nov-16 06:58N 52°28' E 004°40'0 0.0
2017-Nov-16 06:28N 52°28' E 004°40'0 0.0
2017-Nov-16 05:58N 52°28' E 004°40'0 0.0
2017-Nov-16 05:25N 52°28' E 004°40'0 0.0
2017-Nov-16 04:58N 52°28' E 004°40'0 0.0
2017-Nov-16 04:28N 52°28' E 004°40'0 0.0
2017-Nov-16 03:58N 52°28' E 004°40'0 0.0
2017-Nov-16 03:25N 52°28' E 004°40'0 0.0
2017-Nov-16 02:58N 52°28' E 004°40'0 0.0
2017-Nov-16 02:28N 52°28' E 004°40'0 0.0
2017-Nov-16 01:55N 52°28' E 004°40'0 0.0
2017-Nov-16 01:28N 52°28' E 004°40'0 0.0
2017-Nov-16 00:58N 52°28' E 004°40'0 0.0
2017-Nov-16 00:28N 52°28' E 004°40'0 0.0
2017-Nov-15 23:58N 52°28' E 004°40'0 0.0
2017-Nov-15 23:28N 52°28' E 004°40'0 0.0
2017-Nov-15 22:58N 52°28' E 004°40'0 0.0
2017-Nov-15 22:28N 52°28' E 004°40'0 0.0
2017-Nov-15 21:58N 52°28' E 004°40'0 0.0
2017-Nov-15 21:28N 52°28' E 004°40'0 0.0
2017-Nov-15 20:58N 52°28' E 004°40'0 0.0
2017-Nov-15 20:28N 52°28' E 004°40'0 0.0
2017-Nov-15 19:58N 52°28' E 004°40'0 0.0
2017-Nov-15 19:28N 52°28' E 004°40'0 0.0
2017-Nov-15 18:58N 52°28' E 004°40'0 0.0
2017-Nov-15 18:28N 52°28' E 004°40'0 0.0
2017-Nov-15 17:58N 52°28' E 004°40'0 0.0
2017-Nov-15 17:28N 52°28' E 004°40'0 0.0
2017-Nov-15 16:58N 52°28' E 004°40'0 0.0
2017-Nov-15 16:28N 52°28' E 004°40'0 0.0
2017-Nov-15 15:58N 52°28' E 004°40'0 0.0
2017-Nov-15 15:28N 52°28' E 004°40'0 0.0
2017-Nov-15 14:58N 52°28' E 004°40'0 0.0
2017-Nov-15 14:28N 52°28' E 004°40'0 0.0
2017-Nov-15 13:58N 52°28' E 004°40'0 0.0
2017-Nov-15 13:28N 52°28' E 004°40'0 0.0
2017-Nov-15 12:58N 52°28' E 004°40'0 0.0
2017-Nov-15 12:28N 52°28' E 004°40'0 0.0
2017-Nov-15 11:58N 52°28' E 004°40'0 0.0
2017-Nov-15 11:25N 52°28' E 004°40'0 0.0
2017-Nov-15 10:58N 52°28' E 004°40'0 0.0
2017-Nov-15 10:28N 52°28' E 004°40'0 0.0
2017-Nov-15 09:58N 52°28' E 004°40'0 0.0
2017-Nov-15 09:28N 52°28' E 004°40'0 0.0
2017-Nov-15 08:58N 52°28' E 004°40'0 0.0
2017-Nov-15 08:28N 52°28' E 004°40'0 0.0
2017-Nov-15 07:58N 52°28' E 004°40'0 0.0
2017-Nov-15 07:28N 52°28' E 004°40'0 0.0
2017-Nov-15 06:58N 52°28' E 004°40'0 0.0
2017-Nov-15 06:28N 52°28' E 004°40'0 0.0
2017-Nov-15 05:58N 52°28' E 004°40'0 0.0
2017-Nov-15 05:28N 52°28' E 004°40'0 0.0
2017-Nov-15 04:58N 52°28' E 004°40'0 0.0
2017-Nov-15 04:28N 52°28' E 004°40'0 0.0
2017-Nov-15 03:58N 52°28' E 004°40'0 0.0
2017-Nov-15 03:28N 52°28' E 004°40'0 0.0
2017-Nov-15 02:58N 52°28' E 004°40'0 0.0
2017-Nov-15 02:28N 52°28' E 004°40'0 0.0
2017-Nov-15 01:58N 52°28' E 004°40'0 0.0
2017-Nov-15 01:28N 52°28' E 004°40'0 0.0
2017-Nov-15 00:58N 52°28' E 004°40'0 0.0
2017-Nov-15 00:28N 52°28' E 004°40'0 0.0
2017-Nov-14 23:58N 52°28' E 004°40'0 0.0
2017-Nov-14 23:28N 52°28' E 004°40'0 0.0
2017-Nov-14 22:58N 52°28' E 004°40'0 0.0
2017-Nov-14 22:28N 52°28' E 004°40'0 0.0
2017-Nov-14 21:58N 52°28' E 004°40'0 0.0
2017-Nov-14 21:28N 52°28' E 004°40'0 0.0
2017-Nov-14 20:58N 52°28' E 004°40'0 0.0
2017-Nov-14 20:28N 52°28' E 004°40'0 0.0
2017-Nov-14 19:58N 52°28' E 004°40'0 0.0
2017-Nov-14 19:28N 52°28' E 004°40'0 0.0
2017-Nov-14 18:58N 52°28' E 004°40'0 0.0
2017-Nov-14 18:28N 52°28' E 004°40'0 0.0
2017-Nov-14 17:58N 52°28' E 004°40'0 0.0
2017-Nov-14 17:28N 52°28' E 004°40'0 0.0
2017-Nov-14 16:58N 52°28' E 004°40'0 0.0
2017-Nov-14 16:28N 52°28' E 004°40'0 0.0
2017-Nov-14 15:58N 52°28' E 004°40'0 0.0
2017-Nov-14 15:28N 52°28' E 004°40'0 0.0
2017-Nov-14 14:58N 52°28' E 004°40'0 0.0
2017-Nov-14 14:28N 52°28' E 004°40'0 0.0
2017-Nov-14 13:55N 52°28' E 004°40'0 0.0
2017-Nov-14 13:28N 52°28' E 004°40'0 0.0
2017-Nov-14 12:58N 52°28' E 004°40'0 0.0
2017-Nov-14 12:28N 52°28' E 004°40'0 0.0
2017-Nov-14 11:58N 52°28' E 004°40'0 0.0
2017-Nov-14 11:28N 52°28' E 004°40'0 0.0
2017-Nov-14 10:55N 52°28' E 004°40'0 0.0
2017-Nov-14 10:28N 52°28' E 004°40'0 0.0
2017-Nov-14 09:58N 52°28' E 004°40'0 0.0
2017-Nov-14 09:28N 52°28' E 004°40'0 0.0
2017-Nov-14 08:58N 52°28' E 004°40'0 0.0
2017-Nov-14 08:28N 52°28' E 004°40'0 0.0
2017-Nov-14 07:58N 52°28' E 004°40'0 0.0
2017-Nov-14 07:28N 52°28' E 004°40'0 0.0
2017-Nov-14 06:58N 52°28' E 004°40'0 0.0
2017-Nov-14 06:28N 52°28' E 004°40'0 0.0
2017-Nov-14 05:58N 52°28' E 004°40'0 0.0
2017-Nov-14 05:25N 52°28' E 004°40'0 0.0
2017-Nov-14 04:58N 52°28' E 004°40'0 0.0
2017-Nov-14 04:28N 52°28' E 004°40'0 0.0
2017-Nov-14 03:58N 52°28' E 004°40'0 0.0
2017-Nov-14 03:28N 52°28' E 004°40'0 0.0
2017-Nov-14 02:58N 52°28' E 004°40'0 0.0
2017-Nov-14 02:28N 52°28' E 004°40'0 0.0
2017-Nov-14 01:58N 52°28' E 004°40'0 0.0
2017-Nov-14 01:28N 52°28' E 004°40'0 0.0
2017-Nov-14 00:58N 52°28' E 004°40'0 0.0
2017-Nov-14 00:28N 52°28' E 004°40'0 0.0
2017-Nov-13 23:58N 52°28' E 004°40'0 0.0
2017-Nov-13 23:28N 52°28' E 004°40'0 0.0
2017-Nov-13 22:58N 52°28' E 004°40'0 0.0
2017-Nov-13 22:28N 52°28' E 004°40'0 0.0
2017-Nov-13 21:58N 52°28' E 004°40'0 0.0
2017-Nov-13 01:58N 52°28' E 004°40'0 0.0
2017-Nov-13 01:28N 52°28' E 004°40'0 0.0
2017-Nov-13 00:58N 52°28' E 004°40'0 0.0
2017-Nov-13 00:28N 52°28' E 004°40'0 0.0
2017-Nov-12 23:58N 52°28' E 004°40'0 0.0
2017-Nov-12 23:28N 52°28' E 004°40'0 0.0
2017-Nov-12 22:58N 52°28' E 004°40'0 0.0
2017-Nov-12 22:28N 52°28' E 004°40'0 0.0
2017-Nov-12 21:58N 52°28' E 004°40'0 0.0
2017-Nov-12 21:28N 52°28' E 004°40'0 0.0
2017-Nov-12 20:58N 52°28' E 004°40'0 0.0
2017-Nov-12 20:28N 52°28' E 004°40'0 0.0
2017-Nov-12 19:58N 52°28' E 004°40'0 0.0
2017-Nov-12 19:28N 52°28' E 004°40'0 0.0
2017-Nov-12 18:58N 52°28' E 004°40'0 0.0
2017-Nov-12 18:28N 52°28' E 004°40'0 0.0
2017-Nov-12 17:58N 52°28' E 004°40'0 0.0
2017-Nov-12 17:28N 52°28' E 004°40'0 0.0
2017-Nov-12 16:58N 52°28' E 004°40'0 0.0
2017-Nov-12 16:28N 52°28' E 004°40'0 0.0
2017-Nov-12 15:58N 52°28' E 004°40'0 0.0
2017-Nov-12 15:28N 52°28' E 004°40'0 0.0
2017-Nov-12 14:58N 52°28' E 004°40'0 0.0
2017-Nov-12 14:28N 52°28' E 004°40'0 0.0
2017-Nov-12 13:58N 52°28' E 004°40'0 0.0
2017-Nov-12 13:28N 52°28' E 004°40'0 0.0
2017-Nov-12 12:58N 52°28' E 004°40'0 0.0
2017-Nov-12 12:28N 52°28' E 004°40'0 0.0
2017-Nov-12 11:58N 52°28' E 004°40'0 0.0
2017-Nov-12 11:28N 52°28' E 004°40'0 0.0
2017-Nov-12 10:58N 52°28' E 004°40'0 0.0
2017-Nov-12 10:28N 52°28' E 004°40'0 0.1
2017-Nov-12 10:00N 52°28' E 004°40'1 1.4
2017-Nov-12 09:31N 52°28' E 004°39'2 3.2
2017-Nov-12 09:00N 52°28' E 004°37'0 1.0
2017-Nov-12 08:31N 52°28' E 004°36'5 9.4
2017-Nov-12 08:01N 52°28' E 004°28'5 9.2
2017-Nov-12 07:30N 52°28' E 004°20'5 9.7
2017-Nov-12 07:01N 52°29' E 004°13'5 9.9
2017-Nov-12 06:31N 52°28' E 004°05'3 5.7
2017-Nov-12 06:01N 52°26' E 004°02'0 0.4
2017-Nov-12 05:29N 52°26' E 004°02'0 0.0
2017-Nov-12 04:59N 52°26' E 004°02'0 0.0
2017-Nov-12 04:29N 52°26' E 004°02'0 0.0
2017-Nov-12 03:56N 52°26' E 004°02'0 0.1
2017-Nov-12 03:29N 52°26' E 004°02'0 0.0
2017-Nov-12 02:59N 52°26' E 004°02'0 0.0
2017-Nov-12 02:26N 52°26' E 004°02'0 0.0
2017-Nov-12 01:59N 52°26' E 004°02'0 0.1
2017-Nov-12 01:29N 52°26' E 004°02'0 0.0
2017-Nov-12 00:59N 52°26' E 004°02'0 0.0
2017-Nov-12 00:29N 52°26' E 004°02'0 0.0
2017-Nov-11 23:59N 52°26' E 004°02'0 0.1
2017-Nov-11 23:29N 52°26' E 004°02'0 0.1
2017-Nov-11 22:50N 52°26' E 004°02'0 0.1
2017-Nov-11 22:29N 52°26' E 004°02'0 0.0
2017-Nov-11 21:59N 52°26' E 004°02'0 0.0
2017-Nov-11 21:29N 52°26' E 004°02'0 0.0
2017-Nov-11 20:59N 52°26' E 004°02'0 0.0
2017-Nov-11 20:26N 52°26' E 004°02'0 0.0
2017-Nov-11 19:59N 52°26' E 004°02'0 0.0
2017-Nov-11 19:29N 52°26' E 004°02'0 0.2
2017-Nov-11 18:59N 52°26' E 004°02'0 0.0
2017-Nov-11 18:29N 52°26' E 004°02'0 0.0
2017-Nov-11 17:59N 52°26' E 004°02'0 0.1
2017-Nov-11 17:26N 52°26' E 004°02'0 0.1
2017-Nov-11 16:59N 52°26' E 004°02'0 0.0
2017-Nov-11 16:29N 52°26' E 004°02'0 0.0
2017-Nov-11 15:59N 52°26' E 004°02'0 0.0
2017-Nov-11 15:29N 52°26' E 004°02'0 0.0
2017-Nov-11 14:56N 52°26' E 004°02'0 0.0
2017-Nov-11 14:26N 52°26' E 004°02'0 0.0
2017-Nov-11 13:59N 52°26' E 004°02'0 0.0
2017-Nov-11 13:29N 52°26' E 004°02'0 0.1
2017-Nov-11 12:59N 52°26' E 004°02'0 0.1
2017-Nov-11 12:29N 52°26' E 004°02'0 0.0
2017-Nov-11 11:59N 52°26' E 004°02'0 0.1
2017-Nov-11 11:29N 52°26' E 004°02'0 0.1
2017-Nov-11 10:59N 52°26' E 004°02'0 0.0
2017-Nov-11 10:29N 52°26' E 004°02'0 0.1
2017-Nov-11 09:59N 52°26' E 004°02'0 0.0
2017-Nov-11 09:29N 52°26' E 004°02'0 0.0
2017-Nov-11 08:59N 52°26' E 004°02'0 0.0
2017-Nov-11 08:29N 52°26' E 004°02'0 0.0
2017-Nov-11 07:59N 52°26' E 004°02'0 0.0
2017-Nov-11 07:29N 52°26' E 004°02'0 0.0
2017-Nov-11 06:59N 52°26' E 004°02'0 0.0
2017-Nov-11 06:29N 52°26' E 004°02'0 0.1
2017-Nov-11 05:59N 52°26' E 004°02'0 0.0
2017-Nov-11 05:29N 52°26' E 004°02'0 0.0
2017-Nov-11 04:59N 52°26' E 004°02'0 0.0
2017-Nov-11 04:29N 52°26' E 004°02'0 0.0
2017-Nov-11 03:59N 52°26' E 004°02'0 0.0
2017-Nov-11 03:23N 52°26' E 004°02'0 0.0
2017-Nov-11 02:59N 52°26' E 004°02'0 0.0
2017-Nov-11 02:29N 52°26' E 004°02'0 0.0
2017-Nov-11 01:59N 52°26' E 004°02'0 0.0
2017-Nov-11 01:29N 52°26' E 004°02'0 0.0
2017-Nov-11 00:59N 52°26' E 004°02'0 0.0
2017-Nov-11 00:29N 52°26' E 004°02'0 0.1
2017-Nov-10 23:56N 52°26' E 004°02'0 0.0
2017-Nov-10 23:17N 52°26' E 004°02'0 0.1
2017-Nov-10 22:59N 52°26' E 004°02'0 0.0
2017-Nov-10 22:29N 52°26' E 004°02'0 0.0
2017-Nov-10 21:59N 52°26' E 004°02'0 0.0
2017-Nov-10 21:29N 52°26' E 004°02'0 0.0
2017-Nov-10 20:59N 52°26' E 004°02'0 0.1
2017-Nov-10 20:29N 52°26' E 004°02'0 0.0
2017-Nov-10 19:59N 52°26' E 004°02'0 0.0
2017-Nov-10 19:29N 52°26' E 004°02'0 0.0
2017-Nov-10 18:59N 52°26' E 004°02'0 0.1
2017-Nov-10 18:29N 52°26' E 004°02'0 0.1
2017-Nov-10 17:59N 52°26' E 004°02'0 0.1
2017-Nov-10 17:26N 52°26' E 004°02'0 0.1
2017-Nov-10 16:59N 52°26' E 004°02'0 0.0
2017-Nov-10 16:26N 52°26' E 004°02'0 0.0
2017-Nov-10 15:59N 52°26' E 004°02'0 0.1
2017-Nov-10 15:29N 52°26' E 004°02'0 0.1
2017-Nov-10 14:59N 52°26' E 004°02'0 0.1
2017-Nov-10 14:29N 52°26' E 004°02'0 0.1
2017-Nov-10 13:56N 52°26' E 004°01'0 0.1
2017-Nov-10 13:29N 52°26' E 004°01'0 0.1
2017-Nov-10 12:59N 52°26' E 004°01'0 0.1
2017-Nov-10 12:29N 52°26' E 004°01'0 0.0
2017-Nov-10 11:56N 52°26' E 004°01'0 0.0
2017-Nov-10 11:29N 52°26' E 004°01'0 0.0
2017-Nov-10 10:58N 52°26' E 004°01'0 0.0
2017-Nov-10 10:23N 52°26' E 004°01'0 0.0
2017-Nov-10 09:59N 52°26' E 004°01'0 0.0
2017-Nov-10 09:29N 52°26' E 004°01'0 0.1
2017-Nov-10 08:58N 52°26' E 004°01'0 0.1
2017-Nov-10 08:26N 52°26' E 004°01'0 0.0
2017-Nov-10 07:58N 52°26' E 004°01'0 0.0
2017-Nov-10 06:50N 52°26' E 004°01'0 0.0
2017-Nov-10 06:14N 52°26' E 004°01'0 0.1
2017-Nov-10 05:50N 52°26' E 004°01'0 0.1
2017-Nov-10 05:29N 52°26' E 004°01'0 0.0
2017-Nov-10 04:49N 52°26' E 004°01'0 0.0
2017-Nov-10 04:26N 52°26' E 004°01'0 0.0
2017-Nov-10 03:55N 52°26' E 004°01'0 0.0
2017-Nov-10 03:29N 52°26' E 004°01'0 0.0
2017-Nov-10 02:58N 52°26' E 004°01'0 0.0
2017-Nov-10 02:29N 52°26' E 004°01'0 0.0
2017-Nov-10 01:59N 52°26' E 004°01'0 0.1
2017-Nov-10 01:29N 52°26' E 004°01'0 0.1
2017-Nov-10 00:59N 52°26' E 004°01'0 0.0
2017-Nov-10 00:29N 52°26' E 004°01'0 0.0
2017-Nov-09 23:59N 52°26' E 004°01'0 0.0
2017-Nov-09 23:28N 52°26' E 004°01'0 0.0
2017-Nov-09 22:58N 52°26' E 004°01'0 0.1
2017-Nov-09 22:28N 52°26' E 004°01'0 0.0
2017-Nov-09 21:58N 52°26' E 004°01'0 0.0
2017-Nov-09 21:28N 52°26' E 004°01'0 0.0
2017-Nov-09 20:58N 52°26' E 004°01'0 0.1
2017-Nov-09 20:29N 52°26' E 004°01'0 0.1
2017-Nov-09 19:56N 52°26' E 004°01'0 0.0
2017-Nov-09 19:29N 52°26' E 004°01'0 0.0
2017-Nov-09 18:55N 52°26' E 004°01'0 0.0
2017-Nov-09 18:25N 52°26' E 004°01'0 0.0
2017-Nov-09 17:58N 52°26' E 004°01'0 0.0
2017-Nov-09 17:28N 52°26' E 004°01'0 0.1
2017-Nov-09 16:58N 52°26' E 004°01'1 1.1
2017-Nov-09 16:30N 52°26' E 004°02'4 7.5
2017-Nov-09 16:00N 52°27' E 004°08'4 8.7
2017-Nov-09 15:30N 52°31' E 004°08'713.5
2017-Nov-09 15:00N 52°37' E 004°04'713.8
2017-Nov-09 14:30N 52°44' E 004°00'815.4
2017-Nov-09 14:00N 52°52' E 003°58'1015.9
2017-Nov-09 13:24N 52°60' E 004°06'  
Track history (hours):
 
Tides and Currents Weather Stations Pressure Air Temp Water Temp Dewpoint Dewpoint Depression Visibility Wind Speed Wind Dir Waves Ship Positions

Baltic Pride

Last reported at 2017-Nov-19 07:44 UTC. Time now 2017-Nov-20 15:20 UTC.
Position N 48°12' W 007°19'.

Length 150 m; draft 7.7 m.

Type: Cargo ship. MMSI: 636011106.

Date/timePositionNaut miles runAvg speedWind from/ knotsBaromVisibWave heightAir tempDewpointWater temp
2017-Nov-19 07:44N 48°12' W 007°19'517.4
2017-Nov-19 07:26N 48°16' W 007°13'1216.8
2017-Nov-19 06:41N 48°24' W 006°59'316.5
2017-Nov-19 06:29N 48°27' W 006°55'816.4
2017-Nov-19 05:59N 48°32' W 006°46'1115.9
2017-Nov-19 05:17N 48°40' W 006°34'515.6
2017-Nov-19 05:00N 48°43' W 006°29'1215.4
2017-Nov-19 04:15N 48°51' W 006°16'1015.1
2017-Nov-19 03:33N 48°58' W 006°04'315.0
2017-Nov-19 03:23N 48°59' W 006°01'914.9
2017-Nov-19 02:46N 49°04' W 005°49'515.0
2017-Nov-19 02:25N 49°06' W 005°42'1915.4
2017-Nov-19 01:12N 49°14' W 005°16'616.0
2017-Nov-19 00:49N 49°17' W 005°08'616.5
2017-Nov-19 00:25N 49°20' W 004°59'5017.1
2017-Nov-18 21:31N 49°42' W 003°50'016.1
2017-Nov-18 21:30N 49°42' W 003°50'916.0
2017-Nov-18 20:55N 49°46' W 003°37'615.4
2017-Nov-18 20:30N 49°49' W 003°28'714.9
2017-Nov-18 20:00N 49°52' W 003°18'714.4
2017-Nov-18 19:30N 49°55' W 003°08'714.1
2017-Nov-18 19:01N 49°58' W 002°58'714.0
2017-Nov-18 18:31N 50°00' W 002°47'2915.0
2017-Nov-18 16:33N 50°09' W 002°04'216.2
2017-Nov-18 16:27N 50°09' W 002°01'716.8
2017-Nov-18 16:00N 50°11' W 001°50'917.6
2017-Nov-18 15:31N 50°13' W 001°37'918.3
2017-Nov-18 15:00N 50°16' W 001°23'3918.4
2017-Nov-18 12:55N 50°26' W 000°25'717.1
2017-Nov-18 12:30N 50°28' W 000°14'816.7
2017-Nov-18 12:00N 50°31' W 000°02'816.4
2017-Nov-18 11:30N 50°33' E 000°11'815.9
2017-Nov-18 11:00N 50°35' E 000°23'815.3
2017-Nov-18 10:30N 50°38' E 000°34'815.1
2017-Nov-18 10:00N 50°42' E 000°44'815.2
2017-Nov-18 09:30N 50°47' E 000°53'815.3
2017-Nov-18 08:59N 50°52' E 001°03'816.2
2017-Nov-18 08:30N 50°57' E 001°13'917.8
2017-Nov-18 08:00N 51°02' E 001°24'1019.2
2017-Nov-18 07:30N 51°07' E 001°36'918.9
2017-Nov-18 07:00N 51°15' E 001°46'918.5
2017-Nov-18 06:31N 51°23' E 001°53'917.4
2017-Nov-18 06:00N 51°29' E 002°02'816.7
2017-Nov-18 05:30N 51°36' E 002°11'916.4
2017-Nov-18 04:56N 51°43' E 002°21'6814.6
2017-Nov-18 00:15N 52°30' E 003°42'415.5
2017-Nov-18 00:00N 52°31' E 003°48'815.8
2017-Nov-17 23:30N 52°31' E 004°00'815.9
2017-Nov-17 23:00N 52°31' E 004°13'714.6
2017-Nov-17 22:30N 52°29' E 004°25'510.2
2017-Nov-17 22:01N 52°28' E 004°33'2 4.3
2017-Nov-17 21:30N 52°28' E 004°37'1 1.9
2017-Nov-17 21:00N 52°28' E 004°38'1 2.4
2017-Nov-17 20:30N 52°28' E 004°40'0 0.6
2017-Nov-17 19:58N 52°28' E 004°40'0 0.0
2017-Nov-17 19:28N 52°28' E 004°40'0 0.0
2017-Nov-17 18:58N 52°28' E 004°40'0 0.0
2017-Nov-17 18:28N 52°28' E 004°40'0 0.0
2017-Nov-17 17:55N 52°28' E 004°40'0 0.0
2017-Nov-17 17:28N 52°28' E 004°40'0 0.0
2017-Nov-17 16:58N 52°28' E 004°40'0 0.0
2017-Nov-17 16:28N 52°28' E 004°40'0 0.0
2017-Nov-17 15:58N 52°28' E 004°40'0 0.0
2017-Nov-17 15:28N 52°28' E 004°40'0 0.0
2017-Nov-17 14:58N 52°28' E 004°40'0 0.0
2017-Nov-17 14:25N 52°28' E 004°40'0 0.0
2017-Nov-17 13:58N 52°28' E 004°40'0 0.0
2017-Nov-17 13:28N 52°28' E 004°40'0 0.0
2017-Nov-17 12:58N 52°28' E 004°40'0 0.0
2017-Nov-17 12:25N 52°28' E 004°40'0 0.0
2017-Nov-17 11:55N 52°28' E 004°40'0 0.0
2017-Nov-17 11:25N 52°28' E 004°40'0 0.0
2017-Nov-17 10:58N 52°28' E 004°40'0 0.0
2017-Nov-17 10:28N 52°28' E 004°40'0 0.0
2017-Nov-17 09:55N 52°28' E 004°40'0 0.0
2017-Nov-17 09:28N 52°28' E 004°40'0 0.0
2017-Nov-17 08:58N 52°28' E 004°40'0 0.0
2017-Nov-17 08:28N 52°28' E 004°40'0 0.0
2017-Nov-17 07:58N 52°28' E 004°40'0 0.0
2017-Nov-17 07:28N 52°28' E 004°40'0 0.0
2017-Nov-17 06:58N 52°28' E 004°40'0 0.0
2017-Nov-17 06:28N 52°28' E 004°40'0 0.0
2017-Nov-17 05:52N 52°28' E 004°40'0 0.0
2017-Nov-17 05:25N 52°28' E 004°40'0 0.0
2017-Nov-17 04:58N 52°28' E 004°40'0 0.0
2017-Nov-17 04:28N 52°28' E 004°40'0 0.0
2017-Nov-17 03:58N 52°28' E 004°40'0 0.0
2017-Nov-17 03:28N 52°28' E 004°40'0 0.0
2017-Nov-17 02:58N 52°28' E 004°40'0 0.0
2017-Nov-17 02:28N 52°28' E 004°40'0 0.0
2017-Nov-17 01:58N 52°28' E 004°40'0 0.0
2017-Nov-17 01:28N 52°28' E 004°40'0 0.0
2017-Nov-17 00:58N 52°28' E 004°40'0 0.0
2017-Nov-17 00:22N 52°28' E 004°40'0 0.0
2017-Nov-16 23:58N 52°28' E 004°40'0 0.0
2017-Nov-16 23:28N 52°28' E 004°40'0 0.0
2017-Nov-16 22:58N 52°28' E 004°40'0 0.0
2017-Nov-16 22:28N 52°28' E 004°40'0 0.0
2017-Nov-16 21:58N 52°28' E 004°40'0 0.0
2017-Nov-16 21:28N 52°28' E 004°40'0 0.0
2017-Nov-16 20:58N 52°28' E 004°40'0 0.0
2017-Nov-16 20:28N 52°28' E 004°40'0 0.0
2017-Nov-16 19:58N 52°28' E 004°40'0 0.0
2017-Nov-16 19:28N 52°28' E 004°40'0 0.0
2017-Nov-16 18:58N 52°28' E 004°40'0 0.0
2017-Nov-16 18:13N 52°28' E 004°40'0 0.0
2017-Nov-16 17:55N 52°28' E 004°40'0 0.0
2017-Nov-16 17:28N 52°28' E 004°40'0 0.0
2017-Nov-16 16:52N 52°28' E 004°40'0 0.0
2017-Nov-16 16:28N 52°28' E 004°40'0 0.0
2017-Nov-16 15:55N 52°28' E 004°40'0 0.0
2017-Nov-16 15:28N 52°28' E 004°40'0 0.0
2017-Nov-16 14:55N 52°28' E 004°40'0 0.0
2017-Nov-16 14:28N 52°28' E 004°40'0 0.0
2017-Nov-16 13:58N 52°28' E 004°40'0 0.0
2017-Nov-16 13:28N 52°28' E 004°40'0 0.0
2017-Nov-16 12:58N 52°28' E 004°40'0 0.0
2017-Nov-16 12:25N 52°28' E 004°40'0 0.0
2017-Nov-16 11:52N 52°28' E 004°40'0 0.0
2017-Nov-16 11:28N 52°28' E 004°40'0 0.0
2017-Nov-16 10:58N 52°28' E 004°40'0 0.0
2017-Nov-16 10:28N 52°28' E 004°40'0 0.0
2017-Nov-16 09:58N 52°28' E 004°40'0 0.0
2017-Nov-16 09:28N 52°28' E 004°40'0 0.0
2017-Nov-16 08:52N 52°28' E 004°40'0 0.0
2017-Nov-16 08:25N 52°28' E 004°40'0 0.0
2017-Nov-16 07:58N 52°28' E 004°40'0 0.0
2017-Nov-16 07:28N 52°28' E 004°40'0 0.0
2017-Nov-16 06:58N 52°28' E 004°40'0 0.0
2017-Nov-16 06:28N 52°28' E 004°40'0 0.0
2017-Nov-16 05:58N 52°28' E 004°40'0 0.0
2017-Nov-16 05:25N 52°28' E 004°40'0 0.0
2017-Nov-16 04:58N 52°28' E 004°40'0 0.0
2017-Nov-16 04:28N 52°28' E 004°40'0 0.0
2017-Nov-16 03:58N 52°28' E 004°40'0 0.0
2017-Nov-16 03:25N 52°28' E 004°40'0 0.0
2017-Nov-16 02:58N 52°28' E 004°40'0 0.0
2017-Nov-16 02:28N 52°28' E 004°40'0 0.0
2017-Nov-16 01:55N 52°28' E 004°40'0 0.0
2017-Nov-16 01:28N 52°28' E 004°40'0 0.0
2017-Nov-16 00:58N 52°28' E 004°40'0 0.0
2017-Nov-16 00:28N 52°28' E 004°40'0 0.0
2017-Nov-15 23:58N 52°28' E 004°40'0 0.0
2017-Nov-15 23:28N 52°28' E 004°40'0 0.0
2017-Nov-15 22:58N 52°28' E 004°40'0 0.0
2017-Nov-15 22:28N 52°28' E 004°40'0 0.0
2017-Nov-15 21:58N 52°28' E 004°40'0 0.0
2017-Nov-15 21:28N 52°28' E 004°40'0 0.0
2017-Nov-15 20:58N 52°28' E 004°40'0 0.0
2017-Nov-15 20:28N 52°28' E 004°40'0 0.0
2017-Nov-15 19:58N 52°28' E 004°40'0 0.0
2017-Nov-15 19:28N 52°28' E 004°40'0 0.0
2017-Nov-15 18:58N 52°28' E 004°40'0 0.0
2017-Nov-15 18:28N 52°28' E 004°40'0 0.0
2017-Nov-15 17:58N 52°28' E 004°40'0 0.0
2017-Nov-15 17:28N 52°28' E 004°40'0 0.0
2017-Nov-15 16:58N 52°28' E 004°40'0 0.0
2017-Nov-15 16:28N 52°28' E 004°40'0 0.0
2017-Nov-15 15:58N 52°28' E 004°40'0 0.0
2017-Nov-15 15:28N 52°28' E 004°40'0 0.0
2017-Nov-15 14:58N 52°28' E 004°40'0 0.0
2017-Nov-15 14:28N 52°28' E 004°40'0 0.0
2017-Nov-15 13:58N 52°28' E 004°40'0 0.0
2017-Nov-15 13:28N 52°28' E 004°40'0 0.0
2017-Nov-15 12:58N 52°28' E 004°40'0 0.0
2017-Nov-15 12:28N 52°28' E 004°40'0 0.0
2017-Nov-15 11:58N 52°28' E 004°40'0 0.0
2017-Nov-15 11:25N 52°28' E 004°40'0 0.0
2017-Nov-15 10:58N 52°28' E 004°40'0 0.0
2017-Nov-15 10:28N 52°28' E 004°40'0 0.0
2017-Nov-15 09:58N 52°28' E 004°40'0 0.0
2017-Nov-15 09:28N 52°28' E 004°40'0 0.0
2017-Nov-15 08:58N 52°28' E 004°40'0 0.0
2017-Nov-15 08:28N 52°28' E 004°40'0 0.0
2017-Nov-15 07:58N 52°28' E 004°40'0 0.0
2017-Nov-15 07:28N 52°28' E 004°40'0 0.0
2017-Nov-15 06:58N 52°28' E 004°40'0 0.0
2017-Nov-15 06:28N 52°28' E 004°40'0 0.0
2017-Nov-15 05:58N 52°28' E 004°40'0 0.0
2017-Nov-15 05:28N 52°28' E 004°40'0 0.0
2017-Nov-15 04:58N 52°28' E 004°40'0 0.0
2017-Nov-15 04:28N 52°28' E 004°40'0 0.0
2017-Nov-15 03:58N 52°28' E 004°40'0 0.0
2017-Nov-15 03:28N 52°28' E 004°40'0 0.0
2017-Nov-15 02:58N 52°28' E 004°40'0 0.0
2017-Nov-15 02:28N 52°28' E 004°40'0 0.0
2017-Nov-15 01:58N 52°28' E 004°40'0 0.0
2017-Nov-15 01:28N 52°28' E 004°40'0 0.0
2017-Nov-15 00:58N 52°28' E 004°40'0 0.0
2017-Nov-15 00:28N 52°28' E 004°40'0 0.0
2017-Nov-14 23:58N 52°28' E 004°40'0 0.0
2017-Nov-14 23:28N 52°28' E 004°40'0 0.0
2017-Nov-14 22:58N 52°28' E 004°40'0 0.0
2017-Nov-14 22:28N 52°28' E 004°40'0 0.0
2017-Nov-14 21:58N 52°28' E 004°40'0 0.0
2017-Nov-14 21:28N 52°28' E 004°40'0 0.0
2017-Nov-14 20:58N 52°28' E 004°40'0 0.0
2017-Nov-14 20:28N 52°28' E 004°40'0 0.0
2017-Nov-14 19:58N 52°28' E 004°40'0 0.0
2017-Nov-14 19:28N 52°28' E 004°40'0 0.0
2017-Nov-14 18:58N 52°28' E 004°40'0 0.0
2017-Nov-14 18:28N 52°28' E 004°40'0 0.0
2017-Nov-14 17:58N 52°28' E 004°40'0 0.0
2017-Nov-14 17:28N 52°28' E 004°40'0 0.0
2017-Nov-14 16:58N 52°28' E 004°40'0 0.0
2017-Nov-14 16:28N 52°28' E 004°40'0 0.0
2017-Nov-14 15:58N 52°28' E 004°40'0 0.0
2017-Nov-14 15:28N 52°28' E 004°40'0 0.0
2017-Nov-14 14:58N 52°28' E 004°40'0 0.0
2017-Nov-14 14:28N 52°28' E 004°40'0 0.0
2017-Nov-14 13:55N 52°28' E 004°40'0 0.0
2017-Nov-14 13:28N 52°28' E 004°40'0 0.0
2017-Nov-14 12:58N 52°28' E 004°40'0 0.0
2017-Nov-14 12:28N 52°28' E 004°40'0 0.0
2017-Nov-14 11:58N 52°28' E 004°40'0 0.0
2017-Nov-14 11:28N 52°28' E 004°40'0 0.0
2017-Nov-14 10:55N 52°28' E 004°40'0 0.0
2017-Nov-14 10:28N 52°28' E 004°40'0 0.0
2017-Nov-14 09:58N 52°28' E 004°40'0 0.0
2017-Nov-14 09:28N 52°28' E 004°40'0 0.0
2017-Nov-14 08:58N 52°28' E 004°40'0 0.0
2017-Nov-14 08:28N 52°28' E 004°40'0 0.0
2017-Nov-14 07:58N 52°28' E 004°40'0 0.0
2017-Nov-14 07:28N 52°28' E 004°40'0 0.0
2017-Nov-14 06:58N 52°28' E 004°40'0 0.0
2017-Nov-14 06:28N 52°28' E 004°40'0 0.0
2017-Nov-14 05:58N 52°28' E 004°40'0 0.0
2017-Nov-14 05:25N 52°28' E 004°40'0 0.0
2017-Nov-14 04:58N 52°28' E 004°40'0 0.0
2017-Nov-14 04:28N 52°28' E 004°40'0 0.0
2017-Nov-14 03:58N 52°28' E 004°40'0 0.0
2017-Nov-14 03:28N 52°28' E 004°40'0 0.0
2017-Nov-14 02:58N 52°28' E 004°40'0 0.0
2017-Nov-14 02:28N 52°28' E 004°40'0 0.0
2017-Nov-14 01:58N 52°28' E 004°40'0 0.0
2017-Nov-14 01:28N 52°28' E 004°40'0 0.0
2017-Nov-14 00:58N 52°28' E 004°40'0 0.0
2017-Nov-14 00:28N 52°28' E 004°40'0 0.0
2017-Nov-13 23:58N 52°28' E 004°40'0 0.0
2017-Nov-13 23:28N 52°28' E 004°40'0 0.0
2017-Nov-13 22:58N 52°28' E 004°40'0 0.0
2017-Nov-13 22:28N 52°28' E 004°40'0 0.0
2017-Nov-13 21:58N 52°28' E 004°40'0 0.0
2017-Nov-13 01:58N 52°28' E 004°40'0 0.0
2017-Nov-13 01:28N 52°28' E 004°40'0 0.0
2017-Nov-13 00:58N 52°28' E 004°40'0 0.0
2017-Nov-13 00:28N 52°28' E 004°40'0 0.0
2017-Nov-12 23:58N 52°28' E 004°40'0 0.0
2017-Nov-12 23:28N 52°28' E 004°40'0 0.0
2017-Nov-12 22:58N 52°28' E 004°40'0 0.0
2017-Nov-12 22:28N 52°28' E 004°40'0 0.0
2017-Nov-12 21:58N 52°28' E 004°40'0 0.0
2017-Nov-12 21:28N 52°28' E 004°40'0 0.0
2017-Nov-12 20:58N 52°28' E 004°40'0 0.0
2017-Nov-12 20:28N 52°28' E 004°40'0 0.0
2017-Nov-12 19:58N 52°28' E 004°40'0 0.0
2017-Nov-12 19:28N 52°28' E 004°40'0 0.0
2017-Nov-12 18:58N 52°28' E 004°40'0 0.0
2017-Nov-12 18:28N 52°28' E 004°40'0 0.0
2017-Nov-12 17:58N 52°28' E 004°40'0 0.0
2017-Nov-12 17:28N 52°28' E 004°40'0 0.0
2017-Nov-12 16:58N 52°28' E 004°40'0 0.0
2017-Nov-12 16:28N 52°28' E 004°40'0 0.0
2017-Nov-12 15:58N 52°28' E 004°40'0 0.0
2017-Nov-12 15:28N 52°28' E 004°40'0 0.0
2017-Nov-12 14:58N 52°28' E 004°40'0 0.0
2017-Nov-12 14:28N 52°28' E 004°40'0 0.0
2017-Nov-12 13:58N 52°28' E 004°40'0 0.0
2017-Nov-12 13:28N 52°28' E 004°40'0 0.0
2017-Nov-12 12:58N 52°28' E 004°40'0 0.0
2017-Nov-12 12:28N 52°28' E 004°40'0 0.0
2017-Nov-12 11:58N 52°28' E 004°40'0 0.0
2017-Nov-12 11:28N 52°28' E 004°40'0 0.0
2017-Nov-12 10:58N 52°28' E 004°40'0 0.0
2017-Nov-12 10:28N 52°28' E 004°40'0 0.1
2017-Nov-12 10:00N 52°28' E 004°40'1 1.4
2017-Nov-12 09:31N 52°28' E 004°39'2 3.2
2017-Nov-12 09:00N 52°28' E 004°37'0 1.0
2017-Nov-12 08:31N 52°28' E 004°36'5 9.4
2017-Nov-12 08:01N 52°28' E 004°28'5 9.2
2017-Nov-12 07:30N 52°28' E 004°20'5 9.7
2017-Nov-12 07:01N 52°29' E 004°13'5 9.9
2017-Nov-12 06:31N 52°28' E 004°05'3 5.7
2017-Nov-12 06:01N 52°26' E 004°02'0 0.4
2017-Nov-12 05:29N 52°26' E 004°02'0 0.0
2017-Nov-12 04:59N 52°26' E 004°02'0 0.0
2017-Nov-12 04:29N 52°26' E 004°02'0 0.0
2017-Nov-12 03:56N 52°26' E 004°02'0 0.1
2017-Nov-12 03:29N 52°26' E 004°02'0 0.0
2017-Nov-12 02:59N 52°26' E 004°02'0 0.0
2017-Nov-12 02:26N 52°26' E 004°02'0 0.0
2017-Nov-12 01:59N 52°26' E 004°02'0 0.1
2017-Nov-12 01:29N 52°26' E 004°02'0 0.0
2017-Nov-12 00:59N 52°26' E 004°02'0 0.0
2017-Nov-12 00:29N 52°26' E 004°02'0 0.0
2017-Nov-11 23:59N 52°26' E 004°02'0 0.1
2017-Nov-11 23:29N 52°26' E 004°02'0 0.1
2017-Nov-11 22:50N 52°26' E 004°02'0 0.1
2017-Nov-11 22:29N 52°26' E 004°02'0 0.0
2017-Nov-11 21:59N 52°26' E 004°02'0 0.0
2017-Nov-11 21:29N 52°26' E 004°02'0 0.0
2017-Nov-11 20:59N 52°26' E 004°02'0 0.0
2017-Nov-11 20:26N 52°26' E 004°02'0 0.0
2017-Nov-11 19:59N 52°26' E 004°02'0 0.0
2017-Nov-11 19:29N 52°26' E 004°02'0 0.2
2017-Nov-11 18:59N 52°26' E 004°02'0 0.0
2017-Nov-11 18:29N 52°26' E 004°02'0 0.0
2017-Nov-11 17:59N 52°26' E 004°02'0 0.1
2017-Nov-11 17:26N 52°26' E 004°02'0 0.1
2017-Nov-11 16:59N 52°26' E 004°02'0 0.0
2017-Nov-11 16:29N 52°26' E 004°02'0 0.0
2017-Nov-11 15:59N 52°26' E 004°02'0 0.0
2017-Nov-11 15:29N 52°26' E 004°02'0 0.0
2017-Nov-11 14:56N 52°26' E 004°02'0 0.0
2017-Nov-11 14:26N 52°26' E 004°02'0 0.0
2017-Nov-11 13:59N 52°26' E 004°02'0 0.0
2017-Nov-11 13:29N 52°26' E 004°02'0 0.1
2017-Nov-11 12:59N 52°26' E 004°02'0 0.1
2017-Nov-11 12:29N 52°26' E 004°02'0 0.0
2017-Nov-11 11:59N 52°26' E 004°02'0 0.1
2017-Nov-11 11:29N 52°26' E 004°02'0 0.1
2017-Nov-11 10:59N 52°26' E 004°02'0 0.0
2017-Nov-11 10:29N 52°26' E 004°02'0 0.1
2017-Nov-11 09:59N 52°26' E 004°02'0 0.0
2017-Nov-11 09:29N 52°26' E 004°02'0 0.0
2017-Nov-11 08:59N 52°26' E 004°02'0 0.0
2017-Nov-11 08:29N 52°26' E 004°02'0 0.0
2017-Nov-11 07:59N 52°26' E 004°02'0 0.0
2017-Nov-11 07:29N 52°26' E 004°02'0 0.0
2017-Nov-11 06:59N 52°26' E 004°02'0 0.0
2017-Nov-11 06:29N 52°26' E 004°02'0 0.1
2017-Nov-11 05:59N 52°26' E 004°02'0 0.0
2017-Nov-11 05:29N 52°26' E 004°02'0 0.0
2017-Nov-11 04:59N 52°26' E 004°02'0 0.0
2017-Nov-11 04:29N 52°26' E 004°02'0 0.0
2017-Nov-11 03:59N 52°26' E 004°02'0 0.0
2017-Nov-11 03:23N 52°26' E 004°02'0 0.0
2017-Nov-11 02:59N 52°26' E 004°02'0 0.0
2017-Nov-11 02:29N 52°26' E 004°02'0 0.0
2017-Nov-11 01:59N 52°26' E 004°02'0 0.0
2017-Nov-11 01:29N 52°26' E 004°02'0 0.0
2017-Nov-11 00:59N 52°26' E 004°02'0 0.0
2017-Nov-11 00:29N 52°26' E 004°02'0 0.1
2017-Nov-10 23:56N 52°26' E 004°02'0 0.0
2017-Nov-10 23:17N 52°26' E 004°02'0 0.1
2017-Nov-10 22:59N 52°26' E 004°02'0 0.0
2017-Nov-10 22:29N 52°26' E 004°02'0 0.0
2017-Nov-10 21:59N 52°26' E 004°02'0 0.0
2017-Nov-10 21:29N 52°26' E 004°02'0 0.0
2017-Nov-10 20:59N 52°26' E 004°02'0 0.1
2017-Nov-10 20:29N 52°26' E 004°02'0 0.0
2017-Nov-10 19:59N 52°26' E 004°02'0 0.0
2017-Nov-10 19:29N 52°26' E 004°02'0 0.0
2017-Nov-10 18:59N 52°26' E 004°02'0 0.1
2017-Nov-10 18:29N 52°26' E 004°02'0 0.1
2017-Nov-10 17:59N 52°26' E 004°02'0 0.1
2017-Nov-10 17:26N 52°26' E 004°02'0 0.1
2017-Nov-10 16:59N 52°26' E 004°02'0 0.0
2017-Nov-10 16:26N 52°26' E 004°02'0 0.0
2017-Nov-10 15:59N 52°26' E 004°02'0 0.1
2017-Nov-10 15:29N 52°26' E 004°02'0 0.1
2017-Nov-10 14:59N 52°26' E 004°02'0 0.1
2017-Nov-10 14:29N 52°26' E 004°02'0 0.1
2017-Nov-10 13:56N 52°26' E 004°01'0 0.1
2017-Nov-10 13:29N 52°26' E 004°01'0 0.1
2017-Nov-10 12:59N 52°26' E 004°01'0 0.1
2017-Nov-10 12:29N 52°26' E 004°01'0 0.0
2017-Nov-10 11:56N 52°26' E 004°01'0 0.0
2017-Nov-10 11:29N 52°26' E 004°01'0 0.0
2017-Nov-10 10:58N 52°26' E 004°01'0 0.0
2017-Nov-10 10:23N 52°26' E 004°01'0 0.0
2017-Nov-10 09:59N 52°26' E 004°01'0 0.0
2017-Nov-10 09:29N 52°26' E 004°01'0 0.1
2017-Nov-10 08:58N 52°26' E 004°01'0 0.1
2017-Nov-10 08:26N 52°26' E 004°01'0 0.0
2017-Nov-10 07:58N 52°26' E 004°01'0 0.0
2017-Nov-10 06:50N 52°26' E 004°01'0 0.0
2017-Nov-10 06:14N 52°26' E 004°01'0 0.1
2017-Nov-10 05:50N 52°26' E 004°01'0 0.1
2017-Nov-10 05:29N 52°26' E 004°01'0 0.0
2017-Nov-10 04:49N 52°26' E 004°01'0 0.0
2017-Nov-10 04:26N 52°26' E 004°01'0 0.0
2017-Nov-10 03:55N 52°26' E 004°01'0 0.0
2017-Nov-10 03:29N 52°26' E 004°01'0 0.0
2017-Nov-10 02:58N 52°26' E 004°01'0 0.0
2017-Nov-10 02:29N 52°26' E 004°01'0 0.0
2017-Nov-10 01:59N 52°26' E 004°01'0 0.1
2017-Nov-10 01:29N 52°26' E 004°01'0 0.1
2017-Nov-10 00:59N 52°26' E 004°01'0 0.0
2017-Nov-10 00:29N 52°26' E 004°01'0 0.0
2017-Nov-09 23:59N 52°26' E 004°01'0 0.0
2017-Nov-09 23:28N 52°26' E 004°01'0 0.0
2017-Nov-09 22:58N 52°26' E 004°01'0 0.1
2017-Nov-09 22:28N 52°26' E 004°01'0 0.0
2017-Nov-09 21:58N 52°26' E 004°01'0 0.0
2017-Nov-09 21:28N 52°26' E 004°01'0 0.0
2017-Nov-09 20:58N 52°26' E 004°01'0 0.1
2017-Nov-09 20:29N 52°26' E 004°01'0 0.1
2017-Nov-09 19:56N 52°26' E 004°01'0 0.0
2017-Nov-09 19:29N 52°26' E 004°01'0 0.0
2017-Nov-09 18:55N 52°26' E 004°01'0 0.0
2017-Nov-09 18:25N 52°26' E 004°01'0 0.0
2017-Nov-09 17:58N 52°26' E 004°01'0 0.0
2017-Nov-09 17:28N 52°26' E 004°01'0 0.1
2017-Nov-09 16:58N 52°26' E 004°01'1 1.1
2017-Nov-09 16:30N 52°26' E 004°02'4 7.5
2017-Nov-09 16:00N 52°27' E 004°08'4 8.7
2017-Nov-09 15:30N 52°31' E 004°08'713.5
2017-Nov-09 15:00N 52°37' E 004°04'713.8
2017-Nov-09 14:30N 52°44' E 004°00'815.4
2017-Nov-09 14:00N 52°52' E 003°58'1015.9
2017-Nov-09 13:24N 52°60' E 004°06'  

Dump ship's entire track history